Time;durP1;ratioP1;P1;durP2;ratioP2;P2;SDS_P1;SDS_P2;PMS_P1;PMS_P2;Temp;Humidity;BMP_temperature;BMP_pressure;BME280_temperature;BME280_humidity;BME280_pressure;Samples;Min_cycle;Max_cycle;Signal;HPM_P1;HPM_P2
2023/12/08 00:01:53;;;;;;;20.75;12.73;;;;;;;;;;5120599;27;20039;-59
2023/12/08 00:04:19;;;;;;;17.67;11.65;;;;;;;;;;5120733;27;20082;-60
2023/12/08 00:06:45;;;;;;;20.10;13.23;;;;;;;;;;5123637;27;20558;-60
2023/12/08 00:09:11;;;;;;;24.23;14.70;;;;;;;;;;5121396;27;20142;-59
2023/12/08 00:11:37;;;;;;;23.73;13.23;;;;;;;;;;5119888;27;20031;-59
2023/12/08 00:14:03;;;;;;;20.05;13.93;;;;;;;;;;5115682;27;20645;-59
2023/12/08 00:16:30;;;;;;;17.60;13.48;;;;;;;;;;5117506;27;20027;-59
2023/12/08 00:18:56;;;;;;;17.65;12.63;;;;;;;;;;5117526;27;20039;-59
2023/12/08 00:21:23;;;;;;;21.50;13.55;;;;;;;;;;5124006;27;20061;-59
2023/12/08 00:23:49;;;;;;;21.95;12.77;;;;;;;;;;5122836;27;20035;-59
2023/12/08 00:26:15;;;;;;;19.92;11.70;;;;;;;;;;5123602;27;20049;-59
2023/12/08 00:28:41;;;;;;;22.50;14.80;;;;;;;;;;5124625;27;20045;-60
2023/12/08 00:31:07;;;;;;;19.67;13.18;;;;;;;;;;5123046;27;20035;-59
2023/12/08 00:33:33;;;;;;;17.92;13.48;;;;;;;;;;5124732;27;20028;-59
2023/12/08 00:35:59;;;;;;;22.33;14.00;;;;;;;;;;5124325;27;20356;-59
2023/12/08 00:38:25;;;;;;;18.10;12.77;;;;;;;;;;5121044;27;20039;-59
2023/12/08 00:40:52;;;;;;;18.05;12.30;;;;;;;;;;5122855;27;20039;-59
2023/12/08 00:43:18;;;;;;;20.60;13.15;;;;;;;;;;5121109;27;20088;-59
2023/12/08 00:45:44;;;;;;;18.52;13.27;;;;;;;;;;5120424;27;20138;-59
2023/12/08 00:48:10;;;;;;;20.63;14.07;;;;;;;;;;5121902;27;20146;-59
2023/12/08 00:50:36;;;;;;;23.95;14.63;;;;;;;;;;5119780;27;20494;-59
2023/12/08 00:53:02;;;;;;;20.10;13.55;;;;;;;;;;5117378;27;20046;-60
2023/12/08 00:55:28;;;;;;;20.23;13.95;;;;;;;;;;5118437;27;20031;-59
2023/12/08 00:57:54;;;;;;;18.83;12.98;;;;;;;;;;5115978;27;20047;-59
2023/12/08 01:00:20;;;;;;;22.20;13.35;;;;;;;;;;5112149;27;20515;-59
2023/12/08 01:02:47;;;;;;;19.30;13.23;;;;;;;;;;5116764;27;20041;-59
2023/12/08 01:05:12;;;;;;;19.52;13.57;;;;;;;;;;5115658;27;20567;-60
2023/12/08 01:07:39;;;;;;;21.85;14.18;;;;;;;;;;5120490;27;20072;-59
2023/12/08 01:10:07;;;;;;;18.75;13.88;;;;;;;;;;5120002;27;20035;-59
2023/12/08 01:12:33;;;;;;;19.83;13.02;;;;;;;;;;5120477;27;20035;-59
2023/12/08 01:14:59;;;;;;;19.35;13.45;;;;;;;;;;5117601;27;20515;-59
2023/12/08 01:17:25;;;;;;;19.35;13.57;;;;;;;;;;5115698;27;20050;-59
2023/12/08 01:19:51;;;;;;;18.83;12.50;;;;;;;;;;5124960;27;20077;-59
2023/12/08 01:22:17;;;;;;;17.20;12.48;;;;;;;;;;5118086;27;20623;-60
2023/12/08 01:24:43;;;;;;;20.25;12.60;;;;;;;;;;5101758;27;20091;-59
2023/12/08 01:27:09;;;;;;;18.65;13.05;;;;;;;;;;5120255;27;20042;-59
2023/12/08 01:29:35;;;;;;;18.45;12.50;;;;;;;;;;5122664;27;20044;-59
2023/12/08 01:32:01;;;;;;;18.88;13.55;;;;;;;;;;5122344;27;20149;-59
2023/12/08 01:34:27;;;;;;;20.25;12.93;;;;;;;;;;5120306;27;20039;-59
2023/12/08 01:36:53;;;;;;;18.85;12.65;;;;;;;;;;5119997;27;20046;-59
2023/12/08 01:39:19;;;;;;;18.15;13.38;;;;;;;;;;5118829;27;20039;-59
2023/12/08 01:41:49;;;;;;;16.70;11.82;;;;;;;;;;5118681;27;20050;-59
2023/12/08 01:44:15;;;;;;;16.33;11.98;;;;;;;;;;5119274;27;20055;-59
2023/12/08 01:46:41;;;;;;;15.07;11.70;;;;;;;;;;5118031;27;20065;-59
2023/12/08 01:49:07;;;;;;;16.60;11.02;;;;;;;;;;5117365;27;20051;-59
2023/12/08 01:51:33;;;;;;;17.08;12.13;;;;;;;;;;5119340;27;20114;-59
2023/12/08 01:54:00;;;;;;;16.85;12.50;;;;;;;;;;5118722;27;20023;-59
2023/12/08 01:56:26;;;;;;;16.75;12.18;;;;;;;;;;5100333;27;20039;-59
2023/12/08 01:58:53;;;;;;;16.35;12.23;;;;;;;;;;5118437;27;20039;-59
2023/12/08 02:01:20;;;;;;;21.52;14.95;;;;;;;;;;5118799;27;20023;-59
2023/12/08 02:03:48;;;;;;;20.08;13.30;;;;;;;;;;5116180;27;20127;-59
2023/12/08 02:06:14;;;;;;;19.42;12.85;;;;;;;;;;5115255;27;20440;-59
2023/12/08 02:08:41;;;;;;;20.95;13.90;;;;;;;;;;5122373;27;20475;-59
2023/12/08 02:11:07;;;;;;;21.38;13.90;;;;;;;;;;5115164;27;20027;-59
2023/12/08 02:13:33;;;;;;;17.95;12.82;;;;;;;;;;5117787;27;20031;-60
2023/12/08 02:16:26;;;;;;;16.88;11.35;;;;;;;;;;5123484;27;20035;-59
2023/12/08 02:18:52;;;;;;;19.35;12.65;;;;;;;;;;5082106;27;20055;-59
2023/12/08 02:21:18;;;;;;;18.88;13.20;;;;;;;;;;5118105;27;20046;-59
2023/12/08 02:23:47;;;;;;;17.25;12.20;;;;;;;;;;5120091;27;20047;-59
2023/12/08 02:26:13;;;;;;;17.08;11.15;;;;;;;;;;5114658;27;20046;-59
2023/12/08 02:28:39;;;;;;;18.98;13.23;;;;;;;;;;5115544;27;20119;-59
2023/12/08 02:31:06;;;;;;;16.98;12.55;;;;;;;;;;5100293;27;20050;-59
2023/12/08 02:33:33;;;;;;;16.90;12.02;;;;;;;;;;5097734;27;20043;-59
2023/12/08 02:36:04;;;;;;;18.10;12.48;;;;;;;;;;5119566;27;20510;-59
2023/12/08 02:38:32;;;;;;;18.25;11.70;;;;;;;;;;5120534;27;20160;-59
2023/12/08 02:40:58;;;;;;;14.68;10.95;;;;;;;;;;5120071;27;20069;-59
2023/12/08 02:43:24;;;;;;;18.27;12.38;;;;;;;;;;5118071;27;20122;-59
2023/12/08 02:45:50;;;;;;;17.45;12.25;;;;;;;;;;5119363;27;20036;-59
2023/12/08 02:48:16;;;;;;;17.00;11.43;;;;;;;;;;5116033;27;20047;-59
2023/12/08 02:50:43;;;;;;;16.05;11.02;;;;;;;;;;5099107;28;20043;-59
2023/12/08 02:53:09;;;;;;;14.48;10.65;;;;;;;;;;5112440;27;20107;-59
2023/12/08 02:55:35;;;;;;;14.98;10.95;;;;;;;;;;5119240;27;20126;-59
2023/12/08 02:58:01;;;;;;;15.93;11.35;;;;;;;;;;5116681;27;20036;-58
2023/12/08 03:00:27;;;;;;;15.48;11.25;;;;;;;;;;5115891;27;20387;-59
2023/12/08 03:02:53;;;;;;;14.45;10.85;;;;;;;;;;5115990;27;20134;-59
2023/12/08 03:05:19;;;;;;;15.73;11.63;;;;;;;;;;5113699;27;20092;-59
2023/12/08 03:07:45;;;;;;;18.35;12.27;;;;;;;;;;5114738;27;20039;-59
2023/12/08 03:10:12;;;;;;;17.50;13.05;;;;;;;;;;5119473;28;20063;-59
2023/12/08 03:12:38;;;;;;;18.13;12.93;;;;;;;;;;5119199;28;20036;-59
2023/12/08 03:15:05;;;;;;;20.20;12.75;;;;;;;;;;5122293;28;20092;-59
2023/12/08 03:17:31;;;;;;;17.40;11.65;;;;;;;;;;5122725;28;20534;-59
2023/12/08 03:19:57;;;;;;;14.43;10.15;;;;;;;;;;5121148;28;20078;-59
2023/12/08 03:22:23;;;;;;;18.92;12.70;;;;;;;;;;5122645;28;20114;-59
2023/12/08 03:24:49;;;;;;;16.08;11.18;;;;;;;;;;5118898;28;20114;-59
2023/12/08 03:27:15;;;;;;;16.75;11.93;;;;;;;;;;5115641;28;20049;-60
2023/12/08 03:29:41;;;;;;;17.50;13.18;;;;;;;;;;5112912;28;20050;-59
2023/12/08 03:32:07;;;;;;;19.38;12.45;;;;;;;;;;5120138;28;20035;-59
2023/12/08 03:34:33;;;;;;;18.95;13.25;;;;;;;;;;5120493;28;20042;-59
2023/12/08 03:36:59;;;;;;;18.55;12.25;;;;;;;;;;5113834;28;20046;-59
2023/12/08 03:39:25;;;;;;;13.85;10.00;;;;;;;;;;5099047;28;20039;-59
2023/12/08 03:41:51;;;;;;;18.63;12.57;;;;;;;;;;5116597;28;20070;-59
2023/12/08 03:44:17;;;;;;;20.40;13.98;;;;;;;;;;5116032;28;20112;-59
2023/12/08 03:46:43;;;;;;;14.57;11.05;;;;;;;;;;5119172;28;20100;-59
2023/12/08 03:49:10;;;;;;;17.98;12.27;;;;;;;;;;5115540;28;20138;-59
2023/12/08 03:51:36;;;;;;;16.05;11.43;;;;;;;;;;5119189;28;20039;-59
2023/12/08 03:54:02;;;;;;;17.20;11.85;;;;;;;;;;5121693;28;20106;-59
2023/12/08 03:56:28;;;;;;;18.45;12.73;;;;;;;;;;5117298;28;20038;-59
2023/12/08 03:58:54;;;;;;;18.40;12.93;;;;;;;;;;5117828;28;20031;-59
2023/12/08 04:01:20;;;;;;;22.83;13.40;;;;;;;;;;5120445;28;20134;-59
2023/12/08 04:03:46;;;;;;;16.65;12.65;;;;;;;;;;5116261;28;20042;-59
2023/12/08 04:06:12;;;;;;;16.20;12.02;;;;;;;;;;5118830;27;20058;-59
2023/12/08 04:08:38;;;;;;;16.23;10.63;;;;;;;;;;5117990;27;20484;-59
2023/12/08 04:11:05;;;;;;;15.90;10.57;;;;;;;;;;5120374;27;20082;-59
2023/12/08 04:13:31;;;;;;;18.92;12.60;;;;;;;;;;5121026;27;20094;-59
2023/12/08 04:15:57;;;;;;;17.75;11.48;;;;;;;;;;5119023;27;20106;-59
2023/12/08 04:18:23;;;;;;;17.65;12.02;;;;;;;;;;5120042;27;20031;-59
2023/12/08 04:20:49;;;;;;;16.35;11.98;;;;;;;;;;5121448;27;20038;-58
2023/12/08 04:23:15;;;;;;;18.45;12.82;;;;;;;;;;5116879;27;20038;-59
2023/12/08 04:25:41;;;;;;;17.27;12.02;;;;;;;;;;5117047;27;20063;-59
2023/12/08 04:28:07;;;;;;;15.38;11.80;;;;;;;;;;5114568;27;20055;-59
2023/12/08 04:30:33;;;;;;;16.45;12.13;;;;;;;;;;5118316;27;20039;-59
2023/12/08 04:32:59;;;;;;;17.05;11.55;;;;;;;;;;5122648;27;20042;-59
2023/12/08 04:35:25;;;;;;;17.17;12.55;;;;;;;;;;5118449;27;20497;-59
2023/12/08 04:37:51;;;;;;;17.50;12.60;;;;;;;;;;5118819;27;20076;-59
2023/12/08 04:40:17;;;;;;;18.77;11.40;;;;;;;;;;5120752;27;20038;-59
2023/12/08 04:42:43;;;;;;;15.40;10.68;;;;;;;;;;5125486;27;20115;-59
2023/12/08 04:45:10;;;;;;;17.50;11.05;;;;;;;;;;5116325;27;20046;-59
2023/12/08 04:47:36;;;;;;;15.50;11.18;;;;;;;;;;5121340;27;20043;-59
2023/12/08 04:50:02;;;;;;;16.58;11.40;;;;;;;;;;5123427;27;20448;-59
2023/12/08 04:52:29;;;;;;;17.20;12.27;;;;;;;;;;5123390;27;20151;-58
2023/12/08 04:54:55;;;;;;;17.13;11.60;;;;;;;;;;5120670;27;20092;-59
2023/12/08 04:57:21;;;;;;;16.88;11.02;;;;;;;;;;5123493;27;20050;-59
2023/12/08 04:59:47;;;;;;;14.68;10.48;;;;;;;;;;5119188;27;20027;-59
2023/12/08 05:02:13;;;;;;;17.73;12.07;;;;;;;;;;5121134;27;20035;-59
2023/12/08 05:04:39;;;;;;;15.63;9.95;;;;;;;;;;5123979;27;20489;-59
2023/12/08 05:07:05;;;;;;;20.17;12.57;;;;;;;;;;5121758;27;20032;-59
2023/12/08 05:09:31;;;;;;;16.27;11.43;;;;;;;;;;5119360;27;20032;-59
2023/12/08 05:11:57;;;;;;;17.90;11.25;;;;;;;;;;5119921;27;20100;-60
2023/12/08 05:14:23;;;;;;;16.10;11.13;;;;;;;;;;5117410;27;20104;-59
2023/12/08 05:16:49;;;;;;;15.52;10.70;;;;;;;;;;5118711;27;20610;-59
2023/12/08 05:19:15;;;;;;;17.60;11.68;;;;;;;;;;5117134;27;20047;-59
2023/12/08 05:21:41;;;;;;;14.98;10.80;;;;;;;;;;5117971;27;20063;-59
2023/12/08 05:24:07;;;;;;;17.58;11.80;;;;;;;;;;5117840;27;20082;-59
2023/12/08 05:26:33;;;;;;;18.25;12.07;;;;;;;;;;5117521;27;20054;-59
2023/12/08 05:28:59;;;;;;;18.30;12.52;;;;;;;;;;5116351;27;20043;-59
2023/12/08 05:31:25;;;;;;;15.18;10.43;;;;;;;;;;5121215;27;20058;-60
2023/12/08 05:33:51;;;;;;;17.58;11.10;;;;;;;;;;5115336;27;20063;-59
2023/12/08 05:36:17;;;;;;;17.83;12.07;;;;;;;;;;5123442;27;20039;-59
2023/12/08 05:38:43;;;;;;;15.82;10.82;;;;;;;;;;5115862;27;20035;-59
2023/12/08 05:41:09;;;;;;;14.20;10.65;;;;;;;;;;5118361;27;20039;-59
2023/12/08 05:43:35;;;;;;;15.82;11.32;;;;;;;;;;5121642;27;20660;-59
2023/12/08 05:46:02;;;;;;;15.15;9.80;;;;;;;;;;5118035;27;20035;-59
2023/12/08 05:48:28;;;;;;;15.20;10.40;;;;;;;;;;5116424;27;20055;-59
2023/12/08 05:50:55;;;;;;;14.38;10.68;;;;;;;;;;5123704;27;20043;-59
2023/12/08 05:53:21;;;;;;;14.07;9.88;;;;;;;;;;5120380;27;20039;-59
2023/12/08 05:55:47;;;;;;;14.10;9.98;;;;;;;;;;5119099;27;20391;-59
2023/12/08 05:58:13;;;;;;;16.65;11.45;;;;;;;;;;5120355;27;20030;-59
2023/12/08 06:00:39;;;;;;;15.23;11.02;;;;;;;;;;5120867;27;20369;-59
2023/12/08 06:03:05;;;;;;;15.10;10.32;;;;;;;;;;5122275;27;20031;-59
2023/12/08 06:05:31;;;;;;;17.25;11.82;;;;;;;;;;5120975;27;20041;-59
2023/12/08 06:07:57;;;;;;;16.27;11.27;;;;;;;;;;5119141;27;20052;-58
2023/12/08 06:10:23;;;;;;;15.10;11.10;;;;;;;;;;5119873;27;20042;-59
2023/12/08 06:12:49;;;;;;;16.15;10.93;;;;;;;;;;5118485;27;20495;-59
2023/12/08 06:15:15;;;;;;;13.20;9.43;;;;;;;;;;5118011;27;20666;-59
2023/12/08 06:17:41;;;;;;;16.00;11.35;;;;;;;;;;5120228;27;20046;-59
2023/12/08 06:20:10;;;;;;;16.83;11.60;;;;;;;;;;5118429;27;20048;-58
2023/12/08 06:22:37;;;;;;;15.88;10.98;;;;;;;;;;5119858;27;20027;-59
2023/12/08 06:25:03;;;;;;;14.02;10.05;;;;;;;;;;5118416;27;20489;-59
2023/12/08 06:27:29;;;;;;;14.95;10.18;;;;;;;;;;5116993;27;20047;-59
2023/12/08 06:29:55;;;;;;;14.68;10.07;;;;;;;;;;5099670;27;20043;-59
2023/12/08 06:32:21;;;;;;;13.75;9.90;;;;;;;;;;5112222;27;20046;-59
2023/12/08 06:34:47;;;;;;;14.80;9.93;;;;;;;;;;5118128;27;20390;-58
2023/12/08 06:37:13;;;;;;;16.15;10.73;;;;;;;;;;5120848;27;20031;-59
2023/12/08 06:39:39;;;;;;;15.35;9.73;;;;;;;;;;5115185;27;20035;-59
2023/12/08 06:42:06;;;;;;;14.93;10.50;;;;;;;;;;5115698;27;20035;-59
2023/12/08 06:44:32;;;;;;;13.82;9.13;;;;;;;;;;5116346;27;20081;-59
2023/12/08 06:46:58;;;;;;;11.88;8.43;;;;;;;;;;5117770;27;20073;-59
2023/12/08 06:49:24;;;;;;;14.50;10.40;;;;;;;;;;5116665;27;20079;-59
2023/12/08 06:51:50;;;;;;;14.00;9.07;;;;;;;;;;5120376;27;20047;-58
2023/12/08 06:54:16;;;;;;;13.82;9.93;;;;;;;;;;5117633;27;20083;-59
2023/12/08 06:56:42;;;;;;;17.25;10.95;;;;;;;;;;5118065;27;20031;-59
2023/12/08 06:59:09;;;;;;;17.20;11.88;;;;;;;;;;5120535;27;20106;-59
2023/12/08 07:01:35;;;;;;;17.30;12.20;;;;;;;;;;5118763;27;20485;-59
2023/12/08 07:04:03;;;;;;;15.65;10.77;;;;;;;;;;5101817;27;20471;-59
2023/12/08 07:06:29;;;;;;;15.73;10.65;;;;;;;;;;5116032;27;20039;-59
2023/12/08 07:08:55;;;;;;;17.13;10.95;;;;;;;;;;5121047;27;20043;-58
2023/12/08 07:11:22;;;;;;;18.15;12.75;;;;;;;;;;5116916;28;20112;-59
2023/12/08 07:13:48;;;;;;;18.80;12.80;;;;;;;;;;5115558;28;20069;-59
2023/12/08 07:16:15;;;;;;;18.88;13.80;;;;;;;;;;5118293;28;20144;-59
2023/12/08 07:18:41;;;;;;;20.20;13.50;;;;;;;;;;5116170;28;20388;-59
2023/12/08 07:21:07;;;;;;;16.50;12.00;;;;;;;;;;5119887;28;20065;-59
2023/12/08 07:23:33;;;;;;;16.20;10.65;;;;;;;;;;5116341;28;20035;-59
2023/12/08 07:25:59;;;;;;;17.17;11.38;;;;;;;;;;5116406;28;20043;-58
2023/12/08 07:28:25;;;;;;;14.20;10.45;;;;;;;;;;5113784;28;20046;-59
2023/12/08 07:30:51;;;;;;;14.10;9.18;;;;;;;;;;5113504;28;20035;-60
2023/12/08 07:33:17;;;;;;;13.82;9.45;;;;;;;;;;5112768;28;20491;-59
2023/12/08 07:35:43;;;;;;;15.98;10.25;;;;;;;;;;5120947;28;20035;-58
2023/12/08 07:38:09;;;;;;;13.38;9.55;;;;;;;;;;5115288;28;20142;-58
2023/12/08 07:40:35;;;;;;;13.82;9.77;;;;;;;;;;5120411;27;20043;-58
2023/12/08 07:43:01;;;;;;;13.15;9.63;;;;;;;;;;5123464;27;20478;-58
2023/12/08 07:45:27;;;;;;;14.40;9.63;;;;;;;;;;5121365;27;20071;-57
2023/12/08 07:47:53;;;;;;;15.52;10.90;;;;;;;;;;5120738;27;20506;-58
2023/12/08 07:50:19;;;;;;;15.25;10.93;;;;;;;;;;5125851;27;20058;-58
2023/12/08 07:52:45;;;;;;;17.55;11.20;;;;;;;;;;5121948;27;20046;-58
2023/12/08 07:55:11;;;;;;;16.65;11.65;;;;;;;;;;5123486;27;21080;-58
2023/12/08 07:57:38;;;;;;;15.23;10.32;;;;;;;;;;5118522;27;20061;-58
2023/12/08 08:00:10;;;;;;;16.08;10.93;;;;;;;;;;5124182;27;20035;-58
2023/12/08 08:02:36;;;;;;;14.48;9.90;;;;;;;;;;5120974;27;20039;-58
2023/12/08 08:05:02;;;;;;;14.38;9.52;;;;;;;;;;5125617;27;20043;-58
2023/12/08 08:07:28;;;;;;;14.10;9.77;;;;;;;;;;5120761;27;20727;-58
2023/12/08 08:09:54;;;;;;;13.32;8.90;;;;;;;;;;5122978;27;20059;-58
2023/12/08 08:12:20;;;;;;;13.13;9.15;;;;;;;;;;5120689;27;20399;-57
2023/12/08 08:14:46;;;;;;;12.68;8.82;;;;;;;;;;5121065;27;20092;-58
2023/12/08 08:17:12;;;;;;;11.82;7.85;;;;;;;;;;5118382;27;20437;-58
2023/12/08 08:19:41;;;;;;;15.73;10.50;;;;;;;;;;5121863;27;20118;-58
2023/12/08 08:22:07;;;;;;;17.95;11.45;;;;;;;;;;5121013;27;20050;-58
2023/12/08 08:24:33;;;;;;;14.15;9.73;;;;;;;;;;5118812;27;21563;-58
2023/12/08 08:26:58;;;;;;;14.15;9.65;;;;;;;;;;5118370;27;20096;-58
2023/12/08 08:29:25;;;;;;;14.00;9.27;;;;;;;;;;5121281;27;20032;-58
2023/12/08 08:31:52;;;;;;;15.00;9.07;;;;;;;;;;5123822;27;20494;-58
2023/12/08 08:34:18;;;;;;;14.43;9.65;;;;;;;;;;5124251;27;20079;-57
2023/12/08 08:36:44;;;;;;;15.68;10.65;;;;;;;;;;5129129;27;20043;-58
2023/12/08 08:39:11;;;;;;;17.25;9.90;;;;;;;;;;5121961;27;20035;-57
2023/12/08 08:41:37;;;;;;;16.67;11.07;;;;;;;;;;5126068;27;20039;-57
2023/12/08 08:44:03;;;;;;;16.85;10.60;;;;;;;;;;5119148;27;20459;-57
2023/12/08 08:46:29;;;;;;;17.83;11.40;;;;;;;;;;5120073;27;20035;-59
2023/12/08 08:48:56;;;;;;;15.15;11.07;;;;;;;;;;5126644;27;20138;-58
2023/12/08 08:51:23;;;;;;;15.30;10.55;;;;;;;;;;5126521;27;20612;-59
2023/12/08 08:53:49;;;;;;;15.50;10.55;;;;;;;;;;5128441;27;20591;-59
2023/12/08 08:56:16;;;;;;;13.15;9.18;;;;;;;;;;5121858;27;20039;-58
2023/12/08 08:58:42;;;;;;;13.57;9.23;;;;;;;;;;5121032;27;20047;-59
2023/12/08 09:01:08;;;;;;;14.43;9.05;;;;;;;;;;5122275;27;20487;-59
2023/12/08 09:03:34;;;;;;;14.38;9.43;;;;;;;;;;5122759;27;20055;-58
2023/12/08 09:06:00;;;;;;;14.80;9.63;;;;;;;;;;5120293;27;20051;-59
2023/12/08 09:08:26;;;;;;;14.77;9.93;;;;;;;;;;5124804;27;20047;-58
2023/12/08 09:10:53;;;;;;;16.60;11.00;;;;;;;;;;5122554;27;20133;-59
2023/12/08 09:13:20;;;;;;;14.82;10.02;;;;;;;;;;5122998;27;20035;-59
2023/12/08 09:15:46;;;;;;;16.23;10.68;;;;;;;;;;5127350;27;20506;-59
2023/12/08 09:18:12;;;;;;;14.73;9.90;;;;;;;;;;5124510;27;20521;-59
2023/12/08 09:20:39;;;;;;;13.63;9.32;;;;;;;;;;5123692;27;20039;-59
2023/12/08 09:23:05;;;;;;;14.45;9.80;;;;;;;;;;5121270;27;20039;-59
2023/12/08 09:25:31;;;;;;;14.90;10.77;;;;;;;;;;5121127;27;20065;-58
2023/12/08 09:27:57;;;;;;;15.48;10.32;;;;;;;;;;5117852;27;20043;-58
2023/12/08 09:30:23;;;;;;;14.77;10.18;;;;;;;;;;5120430;27;20043;-58
2023/12/08 09:32:50;;;;;;;17.70;11.15;;;;;;;;;;5113646;27;20050;-58
2023/12/08 09:35:18;;;;;;;15.93;11.05;;;;;;;;;;5115327;27;20391;-58
2023/12/08 09:37:44;;;;;;;13.70;9.30;;;;;;;;;;5109899;27;20047;-58
2023/12/08 09:40:11;;;;;;;12.50;9.07;;;;;;;;;;5120870;27;20124;-58
2023/12/08 09:42:43;;;;;;;12.40;8.68;;;;;;;;;;5118956;27;20047;-58
2023/12/08 09:45:12;;;;;;;14.87;9.43;;;;;;;;;;5129680;27;20039;-58
2023/12/08 09:47:40;;;;;;;13.35;9.50;;;;;;;;;;5132071;27;20042;-58
2023/12/08 09:50:06;;;;;;;15.68;10.40;;;;;;;;;;5125171;27;20138;-57
2023/12/08 09:52:34;;;;;;;17.52;11.25;;;;;;;;;;5121128;27;20043;-58
2023/12/08 09:55:00;;;;;;;13.00;8.95;;;;;;;;;;5123253;27;20050;-59
2023/12/08 09:57:27;;;;;;;16.27;10.73;;;;;;;;;;5126074;27;20413;-60
2023/12/08 09:59:54;;;;;;;13.70;9.73;;;;;;;;;;5115916;27;20118;-59
2023/12/08 10:02:20;;;;;;;12.30;8.73;;;;;;;;;;5118058;27;20411;-59
2023/12/08 10:04:46;;;;;;;10.95;8.18;;;;;;;;;;5125946;27;20039;-58
2023/12/08 10:07:12;;;;;;;11.77;8.10;;;;;;;;;;5122950;27;20138;-59
2023/12/08 10:09:41;;;;;;;12.88;8.70;;;;;;;;;;5126039;27;20082;-59
2023/12/08 10:12:07;;;;;;;14.45;10.40;;;;;;;;;;5126846;27;20050;-59
2023/12/08 10:14:33;;;;;;;15.20;10.65;;;;;;;;;;5125926;27;20104;-59
2023/12/08 10:16:59;;;;;;;15.68;10.45;;;;;;;;;;5126497;27;20475;-59
2023/12/08 10:19:25;;;;;;;15.13;10.98;;;;;;;;;;5125757;27;20039;-59
2023/12/08 10:22:01;;;;;;;15.57;10.55;;;;;;;;;;5126147;27;20114;-59
2023/12/08 10:24:30;;;;;;;17.00;11.32;;;;;;;;;;5123288;27;20602;-59
2023/12/08 10:26:59;;;;;;;14.18;10.35;;;;;;;;;;5122635;27;20043;-59
2023/12/08 10:29:32;;;;;;;15.05;9.63;;;;;;;;;;5125907;27;20043;-62
2023/12/08 10:31:58;;;;;;;16.08;9.95;;;;;;;;;;5121614;27;20386;-58
2023/12/08 10:34:25;;;;;;;17.67;10.65;;;;;;;;;;5125552;27;20210;-62
2023/12/08 10:36:52;;;;;;;17.67;11.38;;;;;;;;;;5126425;27;20360;-56
2023/12/08 10:39:18;;;;;;;13.15;10.45;;;;;;;;;;5127041;27;20041;-57
2023/12/08 10:41:44;;;;;;;15.68;10.18;;;;;;;;;;5126522;27;20507;-59
2023/12/08 10:44:13;;;;;;;13.75;9.68;;;;;;;;;;5125818;27;20039;-59
2023/12/08 10:46:39;;;;;;;14.68;9.30;;;;;;;;;;5122704;27;20035;-59
2023/12/08 10:49:05;;;;;;;12.48;8.70;;;;;;;;;;5120633;27;20055;-59
2023/12/08 10:51:32;;;;;;;10.55;8.38;;;;;;;;;;5125042;27;20107;-59
2023/12/08 10:53:59;;;;;;;10.98;8.45;;;;;;;;;;5125775;27;20035;-59
2023/12/08 10:56:25;;;;;;;12.13;8.00;;;;;;;;;;5126107;27;20138;-60
2023/12/08 10:58:57;;;;;;;15.93;10.13;;;;;;;;;;5125248;27;20134;-59
2023/12/08 11:01:24;;;;;;;16.55;10.65;;;;;;;;;;5125797;27;20515;-59
2023/12/08 11:03:52;;;;;;;12.85;10.02;;;;;;;;;;5125863;27;20042;-59
2023/12/08 11:06:38;;;;;;;17.15;11.35;;;;;;;;;;5126559;28;20186;-60
2023/12/08 11:09:07;;;;;;;15.07;9.88;;;;;;;;;;5115710;27;20047;-59
2023/12/08 11:11:33;;;;;;;15.60;10.68;;;;;;;;;;5119819;27;20039;-59
2023/12/08 11:14:10;;;;;;;14.95;9.85;;;;;;;;;;5126335;27;20530;-59
2023/12/08 11:16:38;;;;;;;14.77;9.80;;;;;;;;;;5129690;27;20050;-59
2023/12/08 11:19:08;;;;;;;13.75;9.23;;;;;;;;;;5131913;27;20097;-59
2023/12/08 11:21:35;;;;;;;15.25;10.95;;;;;;;;;;5129061;27;20038;-59
2023/12/08 11:24:01;;;;;;;18.60;11.48;;;;;;;;;;5130012;27;20407;-59
2023/12/08 11:26:39;;;;;;;17.48;12.35;;;;;;;;;;5128670;27;20098;-59
2023/12/08 11:29:05;;;;;;;16.40;11.45;;;;;;;;;;5129904;27;20130;-59
2023/12/08 11:31:31;;;;;;;14.30;10.95;;;;;;;;;;5132969;27;20119;-59
2023/12/08 11:34:00;;;;;;;17.15;12.80;;;;;;;;;;5132565;27;20050;-59
2023/12/08 11:36:28;;;;;;;17.42;12.18;;;;;;;;;;5110906;27;20096;-59
2023/12/08 11:38:55;;;;;;;16.42;11.27;;;;;;;;;;5132343;27;20078;-59
2023/12/08 11:41:23;;;;;;;17.55;11.43;;;;;;;;;;5133493;27;20054;-59
2023/12/08 11:43:49;;;;;;;16.67;10.77;;;;;;;;;;5129475;27;20035;-58
2023/12/08 11:46:15;;;;;;;13.93;9.95;;;;;;;;;;5129152;27;20042;-58
2023/12/08 11:48:42;;;;;;;18.73;12.52;;;;;;;;;;5130838;27;20503;-59
2023/12/08 11:51:08;;;;;;;18.48;11.68;;;;;;;;;;5139024;27;20446;-58
2023/12/08 11:53:54;;;;;;;21.65;12.77;;;;;;;;;;5120794;27;20317;-59
2023/12/08 11:56:39;;;;;;;16.30;10.93;;;;;;;;;;5118915;27;20040;-59
2023/12/08 11:59:05;;;;;;;17.70;12.02;;;;;;;;;;5129405;27;20043;-59
2023/12/08 12:01:31;;;;;;;17.70;11.43;;;;;;;;;;5128494;27;20726;-58
2023/12/08 12:03:57;;;;;;;17.08;11.82;;;;;;;;;;5131542;27;20122;-59
2023/12/08 12:06:23;;;;;;;21.13;13.57;;;;;;;;;;5127415;27;20174;-59
2023/12/08 12:08:50;;;;;;;20.02;11.13;;;;;;;;;;5131317;27;20061;-59
2023/12/08 12:11:20;;;;;;;16.52;11.43;;;;;;;;;;5125864;27;20131;-58
2023/12/08 12:13:46;;;;;;;15.38;9.93;;;;;;;;;;5130179;27;20118;-58
2023/12/08 12:16:13;;;;;;;17.25;10.43;;;;;;;;;;5124389;27;20041;-59
2023/12/08 12:18:39;;;;;;;23.27;13.13;;;;;;;;;;5133513;27;20046;-59
2023/12/08 12:21:08;;;;;;;16.55;10.63;;;;;;;;;;5130856;27;20376;-59
2023/12/08 12:23:34;;;;;;;22.05;12.02;;;;;;;;;;5127397;27;20027;-59
2023/12/08 12:26:00;;;;;;;18.95;12.32;;;;;;;;;;5126811;27;20118;-59
2023/12/08 12:28:26;;;;;;;20.85;12.90;;;;;;;;;;5127280;27;20035;-59
2023/12/08 12:30:52;;;;;;;19.05;11.45;;;;;;;;;;5127424;27;20092;-59
2023/12/08 12:33:18;;;;;;;24.05;14.23;;;;;;;;;;5129314;27;20126;-59
2023/12/08 12:35:44;;;;;;;22.70;14.35;;;;;;;;;;5120190;27;20043;-59
2023/12/08 12:38:13;;;;;;;24.52;14.63;;;;;;;;;;5129038;27;20099;-59
2023/12/08 12:40:39;;;;;;;19.08;12.63;;;;;;;;;;5120258;27;20081;-59
2023/12/08 12:43:05;;;;;;;25.13;14.07;;;;;;;;;;5121570;27;20075;-59
2023/12/08 12:45:33;;;;;;;21.85;13.15;;;;;;;;;;5125237;27;20562;-59
2023/12/08 12:48:03;;;;;;;23.63;13.30;;;;;;;;;;5131661;27;20090;-59
2023/12/08 12:50:29;;;;;;;22.05;12.40;;;;;;;;;;5127786;27;20418;-59
2023/12/08 12:53:05;;;;;;;22.30;12.52;;;;;;;;;;5123164;27;20134;-59
2023/12/08 12:55:31;;;;;;;24.63;14.68;;;;;;;;;;5124815;27;20053;-59
2023/12/08 12:57:57;;;;;;;21.77;13.85;;;;;;;;;;5123954;27;20075;-59
2023/12/08 13:00:34;;;;;;;27.55;14.70;;;;;;;;;;5124392;27;20093;-58
2023/12/08 13:03:13;;;;;;;24.98;13.52;;;;;;;;;;5125082;27;20055;-59
2023/12/08 13:05:45;;;;;;;22.25;14.02;;;;;;;;;;5126829;27;20042;-59
2023/12/08 13:08:11;;;;;;;20.77;11.93;;;;;;;;;;5118055;27;20510;-59
2023/12/08 13:10:37;;;;;;;21.25;13.98;;;;;;;;;;5126133;27;20074;-59
2023/12/08 13:13:03;;;;;;;21.17;12.30;;;;;;;;;;5124266;27;20070;-59
2023/12/08 13:15:29;;;;;;;21.02;12.52;;;;;;;;;;5121788;27;20031;-59
2023/12/08 13:17:55;;;;;;;21.75;11.27;;;;;;;;;;5124418;27;20411;-59
2023/12/08 13:20:21;;;;;;;23.80;13.70;;;;;;;;;;5128606;27;20035;-59
2023/12/08 13:22:47;;;;;;;24.60;13.93;;;;;;;;;;5128107;27;20035;-57
2023/12/08 13:25:13;;;;;;;23.38;11.13;;;;;;;;;;5133974;27;20038;-58
2023/12/08 13:27:39;;;;;;;20.58;12.68;;;;;;;;;;5132510;27;20074;-59
2023/12/08 13:30:07;;;;;;;18.40;12.02;;;;;;;;;;5127295;27;20096;-56
2023/12/08 13:32:33;;;;;;;20.58;12.98;;;;;;;;;;5118994;27;20398;-60
2023/12/08 13:34:59;;;;;;;22.17;12.85;;;;;;;;;;5122834;27;20053;-58
2023/12/08 13:37:26;;;;;;;20.85;12.98;;;;;;;;;;5122934;27;20039;-60
2023/12/08 13:39:52;;;;;;;22.48;14.43;;;;;;;;;;5097983;27;20479;-59
2023/12/08 13:42:18;;;;;;;26.33;14.43;;;;;;;;;;5122732;27;20051;-59
2023/12/08 13:44:44;;;;;;;30.23;16.50;;;;;;;;;;5114385;27;20411;-59
2023/12/08 13:47:11;;;;;;;26.35;15.13;;;;;;;;;;5121242;27;20044;-59
2023/12/08 13:49:37;;;;;;;25.10;15.50;;;;;;;;;;5125704;27;20138;-59
2023/12/08 13:52:04;;;;;;;21.13;13.07;;;;;;;;;;5120954;27;20281;-59
2023/12/08 13:54:30;;;;;;;26.10;12.65;;;;;;;;;;5122511;27;20921;-58
2023/12/08 13:56:56;;;;;;;16.65;10.77;;;;;;;;;;5121580;27;20058;-59
2023/12/08 13:59:22;;;;;;;19.38;11.13;;;;;;;;;;5122241;27;20507;-58
2023/12/08 14:01:48;;;;;;;19.55;10.45;;;;;;;;;;5126338;27;20505;-59
2023/12/08 14:04:15;;;;;;;14.52;9.65;;;;;;;;;;5121160;27;20035;-59
2023/12/08 14:06:41;;;;;;;16.52;9.80;;;;;;;;;;5124245;27;20399;-58
2023/12/08 14:09:09;;;;;;;15.48;10.57;;;;;;;;;;5119168;27;20035;-59
2023/12/08 14:11:35;;;;;;;20.48;11.93;;;;;;;;;;5120564;27;20051;-59
2023/12/08 14:14:02;;;;;;;23.33;12.43;;;;;;;;;;5117959;27;20035;-59
2023/12/08 14:16:28;;;;;;;22.48;13.23;;;;;;;;;;5121258;27;20565;-58